sensor_id;sensor_type;location;lat;lon;timestamp;pressure;altitude;pressure_sealevel;temperature;humidity
24788;BME280;12883;52.662;5.196;2022-07-23T00:02:19;101956.25;;;14.17;100.00
24788;BME280;12883;52.662;5.196;2022-07-23T00:04:45;101968.28;;;14.27;100.00
24788;BME280;12883;52.662;5.196;2022-07-23T00:07:10;101972.19;;;14.25;100.00
24788;BME280;12883;52.662;5.196;2022-07-23T00:09:35;101954.94;;;14.06;100.00
24788;BME280;12883;52.662;5.196;2022-07-23T00:12:01;101966.72;;;14.12;100.00
24788;BME280;12883;52.662;5.196;2022-07-23T00:14:26;101965.75;;;13.98;100.00
24788;BME280;12883;52.662;5.196;2022-07-23T00:16:51;101967.03;;;14.02;100.00
24788;BME280;12883;52.662;5.196;2022-07-23T00:19:17;101961.31;;;14.05;100.00
24788;BME280;12883;52.662;5.196;2022-07-23T00:21:42;101951.47;;;14.06;100.00
24788;BME280;12883;52.662;5.196;2022-07-23T00:24:07;101951.41;;;13.99;100.00
24788;BME280;12883;52.662;5.196;2022-07-23T00:26:33;101934.03;;;13.82;100.00
24788;BME280;12883;52.662;5.196;2022-07-23T00:28:58;101962.63;;;13.88;100.00
24788;BME280;12883;52.662;5.196;2022-07-23T00:31:24;101954.97;;;13.85;100.00
24788;BME280;12883;52.662;5.196;2022-07-23T00:33:49;101952.53;;;13.84;100.00
24788;BME280;12883;52.662;5.196;2022-07-23T00:36:15;101954.75;;;13.80;100.00
24788;BME280;12883;52.662;5.196;2022-07-23T00:38:40;101942.63;;;13.78;100.00
24788;BME280;12883;52.662;5.196;2022-07-23T00:41:05;101949.91;;;13.69;100.00
24788;BME280;12883;52.662;5.196;2022-07-23T00:43:31;101943.34;;;13.65;100.00
24788;BME280;12883;52.662;5.196;2022-07-23T00:45:56;101946.81;;;13.66;100.00
24788;BME280;12883;52.662;5.196;2022-07-23T00:48:21;101944.53;;;13.63;100.00
24788;BME280;12883;52.662;5.196;2022-07-23T00:50:47;101945.34;;;13.63;100.00
24788;BME280;12883;52.662;5.196;2022-07-23T00:53:13;101941.53;;;13.51;100.00
24788;BME280;12883;52.662;5.196;2022-07-23T00:55:38;101938.69;;;13.53;100.00
24788;BME280;12883;52.662;5.196;2022-07-23T00:58:04;101948.28;;;13.47;100.00
24788;BME280;12883;52.662;5.196;2022-07-23T01:00:29;101926.84;;;13.41;100.00
24788;BME280;12883;52.662;5.196;2022-07-23T01:02:55;101931.38;;;13.40;100.00
24788;BME280;12883;52.662;5.196;2022-07-23T01:05:20;101927.88;;;13.40;100.00
24788;BME280;12883;52.662;5.196;2022-07-23T01:07:51;101932.59;;;13.38;100.00
24788;BME280;12883;52.662;5.196;2022-07-23T01:10:17;101932.75;;;13.36;100.00
24788;BME280;12883;52.662;5.196;2022-07-23T01:13:08;101928.91;;;13.39;100.00
24788;BME280;12883;52.662;5.196;2022-07-23T01:15:35;101931.28;;;13.34;100.00
24788;BME280;12883;52.662;5.196;2022-07-23T01:18:02;101917.72;;;13.29;100.00
24788;BME280;12883;52.662;5.196;2022-07-23T01:20:29;101912.63;;;13.34;100.00
24788;BME280;12883;52.662;5.196;2022-07-23T01:22:55;101918.75;;;13.28;100.00
24788;BME280;12883;52.662;5.196;2022-07-23T01:25:21;101909.88;;;13.21;100.00
24788;BME280;12883;52.662;5.196;2022-07-23T01:27:46;101913.34;;;13.21;100.00
24788;BME280;12883;52.662;5.196;2022-07-23T01:30:12;101918.22;;;13.18;100.00
24788;BME280;12883;52.662;5.196;2022-07-23T01:32:38;101912.25;;;13.16;100.00
24788;BME280;12883;52.662;5.196;2022-07-23T01:35:04;101912.09;;;13.17;100.00
24788;BME280;12883;52.662;5.196;2022-07-23T01:37:30;101901.78;;;13.14;100.00
24788;BME280;12883;52.662;5.196;2022-07-23T01:39:55;101913.19;;;13.08;100.00
24788;BME280;12883;52.662;5.196;2022-07-23T01:42:21;101911.94;;;13.04;100.00
24788;BME280;12883;52.662;5.196;2022-07-23T01:44:46;101916.25;;;13.05;100.00
24788;BME280;12883;52.662;5.196;2022-07-23T01:47:12;101903.22;;;12.96;100.00
24788;BME280;12883;52.662;5.196;2022-07-23T01:49:37;101914.78;;;13.03;100.00
24788;BME280;12883;52.662;5.196;2022-07-23T01:52:03;101904.28;;;13.01;100.00
24788;BME280;12883;52.662;5.196;2022-07-23T01:54:33;101920.84;;;12.97;100.00
24788;BME280;12883;52.662;5.196;2022-07-23T01:56:59;101911.09;;;13.04;100.00
24788;BME280;12883;52.662;5.196;2022-07-23T01:59:25;101908.44;;;13.04;100.00
24788;BME280;12883;52.662;5.196;2022-07-23T02:01:51;101913.13;;;13.02;100.00
24788;BME280;12883;52.662;5.196;2022-07-23T02:04:17;101915.34;;;12.98;100.00
24788;BME280;12883;52.662;5.196;2022-07-23T02:06:43;101899.53;;;12.97;100.00
24788;BME280;12883;52.662;5.196;2022-07-23T02:09:08;101910.19;;;12.97;100.00
24788;BME280;12883;52.662;5.196;2022-07-23T02:11:34;101889.72;;;12.83;100.00
24788;BME280;12883;52.662;5.196;2022-07-23T02:13:59;101896.13;;;12.88;100.00
24788;BME280;12883;52.662;5.196;2022-07-23T02:16:25;101898.53;;;12.83;100.00
24788;BME280;12883;52.662;5.196;2022-07-23T02:18:50;101884.50;;;12.75;100.00
24788;BME280;12883;52.662;5.196;2022-07-23T02:21:15;101896.78;;;12.76;100.00
24788;BME280;12883;52.662;5.196;2022-07-23T02:23:41;101902.56;;;12.79;100.00
24788;BME280;12883;52.662;5.196;2022-07-23T02:26:06;101896.06;;;12.82;100.00
24788;BME280;12883;52.662;5.196;2022-07-23T02:28:31;101892.75;;;12.80;100.00
24788;BME280;12883;52.662;5.196;2022-07-23T02:30:57;101892.09;;;12.78;100.00
24788;BME280;12883;52.662;5.196;2022-07-23T02:33:23;101887.72;;;12.70;100.00
24788;BME280;12883;52.662;5.196;2022-07-23T02:35:49;101882.41;;;12.70;100.00
24788;BME280;12883;52.662;5.196;2022-07-23T02:38:14;101875.78;;;12.66;100.00
24788;BME280;12883;52.662;5.196;2022-07-23T02:40:39;101892.22;;;12.70;100.00
24788;BME280;12883;52.662;5.196;2022-07-23T02:43:05;101879.47;;;12.65;100.00
24788;BME280;12883;52.662;5.196;2022-07-23T02:45:30;101874.06;;;12.59;100.00
24788;BME280;12883;52.662;5.196;2022-07-23T02:47:56;101879.53;;;12.72;100.00
24788;BME280;12883;52.662;5.196;2022-07-23T02:50:21;101888.09;;;12.67;100.00
24788;BME280;12883;52.662;5.196;2022-07-23T02:52:46;101898.72;;;12.67;100.00
24788;BME280;12883;52.662;5.196;2022-07-23T02:55:12;101911.94;;;12.75;100.00
24788;BME280;12883;52.662;5.196;2022-07-23T02:57:37;101922.06;;;12.80;100.00
24788;BME280;12883;52.662;5.196;2022-07-23T03:00:04;101917.81;;;12.85;100.00
24788;BME280;12883;52.662;5.196;2022-07-23T03:02:30;101900.09;;;12.78;100.00
24788;BME280;12883;52.662;5.196;2022-07-23T03:04:56;101918.81;;;12.99;100.00
24788;BME280;12883;52.662;5.196;2022-07-23T03:07:21;101919.09;;;13.04;100.00
24788;BME280;12883;52.662;5.196;2022-07-23T03:09:46;101928.09;;;13.03;100.00
24788;BME280;12883;52.662;5.196;2022-07-23T03:12:12;101914.38;;;13.06;100.00
24788;BME280;12883;52.662;5.196;2022-07-23T03:14:37;101912.75;;;13.05;100.00
24788;BME280;12883;52.662;5.196;2022-07-23T03:17:03;101918.06;;;13.05;100.00
24788;BME280;12883;52.662;5.196;2022-07-23T03:19:28;101920.50;;;13.00;100.00
24788;BME280;12883;52.662;5.196;2022-07-23T03:21:53;101928.28;;;13.01;100.00
24788;BME280;12883;52.662;5.196;2022-07-23T03:24:19;101928.72;;;13.05;100.00
24788;BME280;12883;52.662;5.196;2022-07-23T03:26:44;101925.81;;;13.00;100.00
24788;BME280;12883;52.662;5.196;2022-07-23T03:29:10;101939.97;;;13.00;100.00
24788;BME280;12883;52.662;5.196;2022-07-23T03:31:35;101943.34;;;12.94;100.00
24788;BME280;12883;52.662;5.196;2022-07-23T03:34:01;101941.81;;;13.00;100.00
24788;BME280;12883;52.662;5.196;2022-07-23T03:36:26;101940.41;;;12.89;100.00
24788;BME280;12883;52.662;5.196;2022-07-23T03:38:52;101907.28;;;12.63;100.00
24788;BME280;12883;52.662;5.196;2022-07-23T03:41:18;101912.34;;;12.58;100.00
24788;BME280;12883;52.662;5.196;2022-07-23T03:43:44;101910.44;;;12.52;100.00
24788;BME280;12883;52.662;5.196;2022-07-23T03:46:09;101924.44;;;12.60;100.00
24788;BME280;12883;52.662;5.196;2022-07-23T03:48:35;101904.38;;;12.43;100.00
24788;BME280;12883;52.662;5.196;2022-07-23T03:51:01;101897.50;;;12.34;100.00
24788;BME280;12883;52.662;5.196;2022-07-23T03:53:26;101900.78;;;12.36;100.00
24788;BME280;12883;52.662;5.196;2022-07-23T03:55:51;101913.16;;;12.58;100.00
24788;BME280;12883;52.662;5.196;2022-07-23T03:58:17;101925.13;;;12.62;100.00
24788;BME280;12883;52.662;5.196;2022-07-23T04:00:42;101927.84;;;12.69;100.00
24788;BME280;12883;52.662;5.196;2022-07-23T04:03:07;101927.13;;;12.75;100.00
24788;BME280;12883;52.662;5.196;2022-07-23T04:05:33;101928.94;;;12.74;100.00
24788;BME280;12883;52.662;5.196;2022-07-23T04:07:58;101931.88;;;12.65;100.00
24788;BME280;12883;52.662;5.196;2022-07-23T04:10:24;101911.69;;;12.56;100.00
24788;BME280;12883;52.662;5.196;2022-07-23T04:12:49;101930.63;;;12.61;100.00
24788;BME280;12883;52.662;5.196;2022-07-23T04:15:14;101927.41;;;12.65;100.00
24788;BME280;12883;52.662;5.196;2022-07-23T04:17:40;101926.84;;;12.70;100.00
24788;BME280;12883;52.662;5.196;2022-07-23T04:20:06;101924.63;;;12.73;100.00
24788;BME280;12883;52.662;5.196;2022-07-23T04:22:31;101929.31;;;12.71;100.00
24788;BME280;12883;52.662;5.196;2022-07-23T04:24:56;101927.13;;;12.75;100.00
24788;BME280;12883;52.662;5.196;2022-07-23T04:27:22;101930.41;;;12.77;100.00
24788;BME280;12883;52.662;5.196;2022-07-23T04:29:47;101922.69;;;12.82;100.00
24788;BME280;12883;52.662;5.196;2022-07-23T04:32:12;101931.53;;;12.82;100.00
24788;BME280;12883;52.662;5.196;2022-07-23T04:34:38;101926.00;;;12.84;100.00
24788;BME280;12883;52.662;5.196;2022-07-23T04:37:03;101926.38;;;12.81;100.00
24788;BME280;12883;52.662;5.196;2022-07-23T04:39:28;101926.28;;;12.74;100.00
24788;BME280;12883;52.662;5.196;2022-07-23T04:41:54;101926.66;;;12.86;100.00
24788;BME280;12883;52.662;5.196;2022-07-23T04:44:19;101920.31;;;12.87;100.00
24788;BME280;12883;52.662;5.196;2022-07-23T04:46:44;101920.31;;;12.87;100.00
24788;BME280;12883;52.662;5.196;2022-07-23T04:49:10;101905.88;;;12.81;100.00
24788;BME280;12883;52.662;5.196;2022-07-23T04:51:35;101927.72;;;13.06;100.00
24788;BME280;12883;52.662;5.196;2022-07-23T04:54:01;101927.63;;;13.14;100.00
24788;BME280;12883;52.662;5.196;2022-07-23T04:56:26;101933.41;;;13.17;100.00
24788;BME280;12883;52.662;5.196;2022-07-23T04:58:51;101922.75;;;13.17;100.00
24788;BME280;12883;52.662;5.196;2022-07-23T05:01:17;101941.47;;;13.24;100.00
24788;BME280;12883;52.662;5.196;2022-07-23T05:03:42;101930.63;;;13.25;100.00
24788;BME280;12883;52.662;5.196;2022-07-23T05:06:07;101938.50;;;13.33;100.00
24788;BME280;12883;52.662;5.196;2022-07-23T05:08:33;101931.06;;;13.29;100.00
24788;BME280;12883;52.662;5.196;2022-07-23T05:10:58;101930.09;;;13.36;100.00
24788;BME280;12883;52.662;5.196;2022-07-23T05:13:24;101920.00;;;13.32;100.00
24788;BME280;12883;52.662;5.196;2022-07-23T05:15:49;101934.81;;;13.55;100.00
24788;BME280;12883;52.662;5.196;2022-07-23T05:18:14;101933.78;;;13.56;100.00
24788;BME280;12883;52.662;5.196;2022-07-23T05:20:40;101941.47;;;13.66;100.00
24788;BME280;12883;52.662;5.196;2022-07-23T05:23:06;101937.16;;;13.65;100.00
24788;BME280;12883;52.662;5.196;2022-07-23T05:25:31;101935.56;;;13.70;100.00
24788;BME280;12883;52.662;5.196;2022-07-23T05:27:57;101939.31;;;13.76;100.00
24788;BME280;12883;52.662;5.196;2022-07-23T05:30:22;101937.72;;;13.81;100.00
24788;BME280;12883;52.662;5.196;2022-07-23T05:32:47;101898.59;;;13.67;100.00
24788;BME280;12883;52.662;5.196;2022-07-23T05:35:13;101945.72;;;14.09;100.00
24788;BME280;12883;52.662;5.196;2022-07-23T05:37:38;101950.59;;;14.26;100.00
24788;BME280;12883;52.662;5.196;2022-07-23T05:40:06;101945.94;;;14.35;100.00
24788;BME280;12883;52.662;5.196;2022-07-23T05:42:33;101943.00;;;14.57;100.00
24788;BME280;12883;52.662;5.196;2022-07-23T05:44:59;101941.63;;;14.74;100.00
24788;BME280;12883;52.662;5.196;2022-07-23T05:47:24;101942.16;;;14.97;100.00
24788;BME280;12883;52.662;5.196;2022-07-23T05:49:49;101931.91;;;15.07;100.00
24788;BME280;12883;52.662;5.196;2022-07-23T05:52:15;101939.38;;;15.31;100.00
24788;BME280;12883;52.662;5.196;2022-07-23T05:54:40;101943.56;;;15.46;100.00
24788;BME280;12883;52.662;5.196;2022-07-23T05:57:06;101948.13;;;15.59;100.00
24788;BME280;12883;52.662;5.196;2022-07-23T05:59:32;101946.50;;;15.77;100.00
24788;BME280;12883;52.662;5.196;2022-07-23T06:01:57;101932.06;;;15.85;100.00
24788;BME280;12883;52.662;5.196;2022-07-23T06:04:22;101946.88;;;16.07;100.00
24788;BME280;12883;52.662;5.196;2022-07-23T06:06:48;101950.78;;;16.17;100.00
24788;BME280;12883;52.662;5.196;2022-07-23T06:09:13;101946.84;;;16.33;100.00
24788;BME280;12883;52.662;5.196;2022-07-23T06:11:40;101923.19;;;16.30;100.00
24788;BME280;12883;52.662;5.196;2022-07-23T06:14:05;101942.72;;;16.63;100.00
24788;BME280;12883;52.662;5.196;2022-07-23T06:16:31;101962.84;;;16.78;100.00
24788;BME280;12883;52.662;5.196;2022-07-23T06:18:56;101964.44;;;16.92;100.00
24788;BME280;12883;52.662;5.196;2022-07-23T06:21:21;101963.59;;;16.98;100.00
24788;BME280;12883;52.662;5.196;2022-07-23T06:23:47;101966.28;;;17.05;100.00
24788;BME280;12883;52.662;5.196;2022-07-23T06:26:12;101971.75;;;17.23;100.00
24788;BME280;12883;52.662;5.196;2022-07-23T06:28:37;101962.25;;;17.20;100.00
24788;BME280;12883;52.662;5.196;2022-07-23T06:31:03;101971.50;;;17.37;100.00
24788;BME280;12883;52.662;5.196;2022-07-23T06:33:28;101969.00;;;17.42;100.00
24788;BME280;12883;52.662;5.196;2022-07-23T06:35:54;101978.69;;;17.43;100.00
24788;BME280;12883;52.662;5.196;2022-07-23T06:38:19;101979.81;;;17.60;100.00
24788;BME280;12883;52.662;5.196;2022-07-23T06:40:45;101985.53;;;17.70;100.00
24788;BME280;12883;52.662;5.196;2022-07-23T06:43:11;101984.50;;;17.71;100.00
24788;BME280;12883;52.662;5.196;2022-07-23T06:45:36;101992.09;;;17.81;100.00
24788;BME280;12883;52.662;5.196;2022-07-23T06:48:01;101985.81;;;17.87;100.00
24788;BME280;12883;52.662;5.196;2022-07-23T06:50:28;101986.22;;;17.90;100.00
24788;BME280;12883;52.662;5.196;2022-07-23T06:52:53;101978.50;;;18.00;100.00
24788;BME280;12883;52.662;5.196;2022-07-23T06:55:19;101983.41;;;18.03;100.00
24788;BME280;12883;52.662;5.196;2022-07-23T06:57:44;101988.19;;;18.01;100.00
24788;BME280;12883;52.662;5.196;2022-07-23T07:00:10;101993.91;;;18.11;100.00
24788;BME280;12883;52.662;5.196;2022-07-23T07:02:36;102000.53;;;18.09;100.00
24788;BME280;12883;52.662;5.196;2022-07-23T07:05:02;102012.00;;;18.22;100.00
24788;BME280;12883;52.662;5.196;2022-07-23T07:07:27;102006.81;;;18.21;100.00
24788;BME280;12883;52.662;5.196;2022-07-23T07:09:53;102023.50;;;18.29;100.00
24788;BME280;12883;52.662;5.196;2022-07-23T07:12:18;102016.94;;;18.25;100.00
24788;BME280;12883;52.662;5.196;2022-07-23T07:14:44;102018.75;;;18.31;100.00
24788;BME280;12883;52.662;5.196;2022-07-23T07:17:09;102008.72;;;18.45;100.00
24788;BME280;12883;52.662;5.196;2022-07-23T07:19:36;102017.53;;;18.52;100.00
24788;BME280;12883;52.662;5.196;2022-07-23T07:22:01;101998.19;;;18.43;100.00
24788;BME280;12883;52.662;5.196;2022-07-23T07:24:27;102024.06;;;18.62;100.00
24788;BME280;12883;52.662;5.196;2022-07-23T07:26:52;102024.88;;;18.63;100.00
24788;BME280;12883;52.662;5.196;2022-07-23T07:29:18;102016.28;;;18.72;100.00
24788;BME280;12883;52.662;5.196;2022-07-23T07:31:43;102029.16;;;18.70;100.00
24788;BME280;12883;52.662;5.196;2022-07-23T07:34:09;102035.94;;;18.73;100.00
24788;BME280;12883;52.662;5.196;2022-07-23T07:36:35;102040.22;;;18.80;100.00
24788;BME280;12883;52.662;5.196;2022-07-23T07:39:03;102036.50;;;18.81;100.00
24788;BME280;12883;52.662;5.196;2022-07-23T07:41:29;102033.28;;;18.91;100.00
24788;BME280;12883;52.662;5.196;2022-07-23T07:43:55;102047.41;;;19.04;100.00
24788;BME280;12883;52.662;5.196;2022-07-23T07:46:20;102029.78;;;19.08;100.00
24788;BME280;12883;52.662;5.196;2022-07-23T07:48:45;102052.56;;;19.06;100.00
24788;BME280;12883;52.662;5.196;2022-07-23T07:51:11;102047.09;;;19.12;100.00
24788;BME280;12883;52.662;5.196;2022-07-23T07:53:36;102056.69;;;19.44;100.00
24788;BME280;12883;52.662;5.196;2022-07-23T07:56:01;102030.66;;;19.38;100.00
24788;BME280;12883;52.662;5.196;2022-07-23T07:58:27;102067.81;;;19.48;100.00
24788;BME280;12883;52.662;5.196;2022-07-23T08:00:52;102062.28;;;19.61;100.00
24788;BME280;12883;52.662;5.196;2022-07-23T08:03:17;102068.78;;;19.53;100.00
24788;BME280;12883;52.662;5.196;2022-07-23T08:05:43;102061.28;;;19.55;100.00
24788;BME280;12883;52.662;5.196;2022-07-23T08:08:08;102060.22;;;19.56;100.00
24788;BME280;12883;52.662;5.196;2022-07-23T08:10:39;102057.72;;;19.73;100.00
24788;BME280;12883;52.662;5.196;2022-07-23T08:13:05;102068.13;;;19.69;100.00
24788;BME280;12883;52.662;5.196;2022-07-23T08:15:30;102064.31;;;19.77;100.00
24788;BME280;12883;52.662;5.196;2022-07-23T08:17:57;102070.47;;;19.66;100.00
24788;BME280;12883;52.662;5.196;2022-07-23T08:20:24;102054.97;;;19.79;100.00
24788;BME280;12883;52.662;5.196;2022-07-23T08:22:55;102054.84;;;19.86;100.00
24788;BME280;12883;52.662;5.196;2022-07-23T08:25:23;102053.84;;;19.98;100.00
24788;BME280;12883;52.662;5.196;2022-07-23T08:27:49;102046.56;;;19.99;100.00
24788;BME280;12883;52.662;5.196;2022-07-23T08:30:15;102034.16;;;19.98;100.00
24788;BME280;12883;52.662;5.196;2022-07-23T08:33:01;102046.63;;;20.22;100.00
24788;BME280;12883;52.662;5.196;2022-07-23T08:35:35;102055.69;;;20.16;100.00
24788;BME280;12883;52.662;5.196;2022-07-23T08:38:03;102048.53;;;20.21;100.00
24788;BME280;12883;52.662;5.196;2022-07-23T08:40:32;102055.22;;;20.19;100.00
24788;BME280;12883;52.662;5.196;2022-07-23T08:42:58;102042.81;;;20.00;100.00
24788;BME280;12883;52.662;5.196;2022-07-23T08:45:25;102054.41;;;20.30;100.00
24788;BME280;12883;52.662;5.196;2022-07-23T08:47:53;102061.19;;;20.32;100.00
24788;BME280;12883;52.662;5.196;2022-07-23T08:50:20;102062.72;;;20.28;100.00
24788;BME280;12883;52.662;5.196;2022-07-23T08:52:50;102065.09;;;20.36;100.00
24788;BME280;12883;52.662;5.196;2022-07-23T08:55:17;102063.44;;;20.35;100.00
24788;BME280;12883;52.662;5.196;2022-07-23T08:57:43;102068.47;;;20.20;100.00
24788;BME280;12883;52.662;5.196;2022-07-23T09:00:09;102047.13;;;20.30;100.00
24788;BME280;12883;52.662;5.196;2022-07-23T09:02:42;102062.16;;;20.26;100.00
24788;BME280;12883;52.662;5.196;2022-07-23T09:05:09;102063.09;;;20.66;100.00
24788;BME280;12883;52.662;5.196;2022-07-23T09:07:36;102068.84;;;20.58;100.00
24788;BME280;12883;52.662;5.196;2022-07-23T09:10:10;102062.88;;;20.79;100.00
24788;BME280;12883;52.662;5.196;2022-07-23T09:12:37;102065.44;;;20.51;100.00
24788;BME280;12883;52.662;5.196;2022-07-23T09:15:07;102063.34;;;20.76;100.00
24788;BME280;12883;52.662;5.196;2022-07-23T09:17:42;102057.75;;;20.89;100.00
24788;BME280;12883;52.662;5.196;2022-07-23T09:20:13;102067.59;;;20.95;100.00
24788;BME280;12883;52.662;5.196;2022-07-23T09:22:48;102059.44;;;20.83;100.00
24788;BME280;12883;52.662;5.196;2022-07-23T09:25:18;102075.06;;;20.70;100.00
24788;BME280;12883;52.662;5.196;2022-07-23T09:27:55;102064.50;;;20.46;100.00
24788;BME280;12883;52.662;5.196;2022-07-23T09:30:29;102072.47;;;20.52;100.00
24788;BME280;12883;52.662;5.196;2022-07-23T09:33:06;102067.91;;;20.52;100.00
24788;BME280;12883;52.662;5.196;2022-07-23T09:35:51;102072.47;;;20.41;100.00
24788;BME280;12883;52.662;5.196;2022-07-23T09:38:17;102076.66;;;20.25;100.00
24788;BME280;12883;52.662;5.196;2022-07-23T09:40:44;102067.03;;;20.18;100.00
24788;BME280;12883;52.662;5.196;2022-07-23T09:43:11;102077.38;;;20.32;100.00
24788;BME280;12883;52.662;5.196;2022-07-23T09:45:36;102073.44;;;20.46;100.00
24788;BME280;12883;52.662;5.196;2022-07-23T09:48:14;102069.91;;;20.80;100.00
24788;BME280;12883;52.662;5.196;2022-07-23T09:50:42;102062.88;;;20.90;100.00
24788;BME280;12883;52.662;5.196;2022-07-23T09:53:09;102071.31;;;20.94;100.00
24788;BME280;12883;52.662;5.196;2022-07-23T09:55:36;102078.94;;;20.85;100.00
24788;BME280;12883;52.662;5.196;2022-07-23T09:58:04;102078.13;;;20.85;100.00
24788;BME280;12883;52.662;5.196;2022-07-23T10:00:32;102075.91;;;21.05;100.00
24788;BME280;12883;52.662;5.196;2022-07-23T10:02:59;102064.88;;;21.06;100.00
24788;BME280;12883;52.662;5.196;2022-07-23T10:05:25;102067.47;;;21.41;100.00
24788;BME280;12883;52.662;5.196;2022-07-23T10:07:51;102060.34;;;21.63;100.00
24788;BME280;12883;52.662;5.196;2022-07-23T10:10:17;102067.41;;;21.64;100.00
24788;BME280;12883;52.662;5.196;2022-07-23T10:12:46;102071.28;;;21.68;100.00
24788;BME280;12883;52.662;5.196;2022-07-23T10:15:30;102081.78;;;21.53;100.00
24788;BME280;12883;52.662;5.196;2022-07-23T10:17:55;102070.81;;;21.59;100.00
24788;BME280;12883;52.662;5.196;2022-07-23T10:20:21;102083.91;;;21.51;100.00
24788;BME280;12883;52.662;5.196;2022-07-23T10:28:42;102084.19;;;21.77;100.00
24788;BME280;12883;52.662;5.196;2022-07-23T10:31:31;102077.97;;;21.65;100.00
24788;BME280;12883;52.662;5.196;2022-07-23T10:36:53;102089.16;;;21.69;100.00
24788;BME280;12883;52.662;5.196;2022-07-23T10:39:26;102081.16;;;21.74;100.00
24788;BME280;12883;52.662;5.196;2022-07-23T10:42:07;102078.59;;;21.95;100.00
24788;BME280;12883;52.662;5.196;2022-07-23T10:44:41;102087.25;;;21.97;100.00
24788;BME280;12883;52.662;5.196;2022-07-23T10:47:09;102095.72;;;22.01;100.00
24788;BME280;12883;52.662;5.196;2022-07-23T10:57:56;102086.28;;;22.03;100.00
24788;BME280;12883;52.662;5.196;2022-07-23T11:00:23;102085.59;;;21.80;100.00
24788;BME280;12883;52.662;5.196;2022-07-23T11:02:51;102066.13;;;21.66;100.00
24788;BME280;12883;52.662;5.196;2022-07-23T11:05:20;102067.53;;;21.57;100.00
24788;BME280;12883;52.662;5.196;2022-07-23T11:31:59;102078.94;;;21.71;100.00
24788;BME280;12883;52.662;5.196;2022-07-23T11:34:47;102074.00;;;21.56;100.00
24788;BME280;12883;52.662;5.196;2022-07-23T11:39:56;102076.13;;;21.94;100.00
24788;BME280;12883;52.662;5.196;2022-07-23T11:42:22;102073.50;;;21.99;100.00
24788;BME280;12883;52.662;5.196;2022-07-23T11:44:48;102077.91;;;22.05;100.00
24788;BME280;12883;52.662;5.196;2022-07-23T11:47:13;102077.13;;;22.04;100.00
24788;BME280;12883;52.662;5.196;2022-07-23T11:49:41;102078.13;;;22.15;100.00
24788;BME280;12883;52.662;5.196;2022-07-23T11:52:17;102086.69;;;21.95;100.00
24788;BME280;12883;52.662;5.196;2022-07-23T11:54:57;102061.72;;;21.77;100.00
24788;BME280;12883;52.662;5.196;2022-07-23T11:57:28;102067.19;;;22.10;100.00
24788;BME280;12883;52.662;5.196;2022-07-23T12:00:24;102071.38;;;22.01;100.00
24788;BME280;12883;52.662;5.196;2022-07-23T12:02:52;102073.84;;;22.02;100.00
24788;BME280;12883;52.662;5.196;2022-07-23T12:05:24;102065.66;;;22.14;100.00
24788;BME280;12883;52.662;5.196;2022-07-23T12:07:55;102069.13;;;21.98;100.00
24788;BME280;12883;52.662;5.196;2022-07-23T12:10:27;102065.34;;;22.10;100.00
24788;BME280;12883;52.662;5.196;2022-07-23T12:15:22;102067.41;;;22.36;100.00
24788;BME280;12883;52.662;5.196;2022-07-23T12:17:48;102065.66;;;22.14;100.00
24788;BME280;12883;52.662;5.196;2022-07-23T12:20:16;102051.78;;;21.94;100.00
24788;BME280;12883;52.662;5.196;2022-07-23T12:22:47;102048.50;;;22.08;100.00
24788;BME280;12883;52.662;5.196;2022-07-23T12:25:16;102047.19;;;22.11;100.00
24788;BME280;12883;52.662;5.196;2022-07-23T12:27:43;102054.50;;;21.94;100.00
24788;BME280;12883;52.662;5.196;2022-07-23T12:32:45;102047.38;;;22.37;100.00
24788;BME280;12883;52.662;5.196;2022-07-23T12:35:11;102036.59;;;22.54;100.00
24788;BME280;12883;52.662;5.196;2022-07-23T12:37:40;102050.84;;;22.33;100.00
24788;BME280;12883;52.662;5.196;2022-07-23T12:40:25;102050.00;;;22.16;100.00
24788;BME280;12883;52.662;5.196;2022-07-23T12:43:09;102043.75;;;22.15;100.00
24788;BME280;12883;52.662;5.196;2022-07-23T12:45:49;102046.41;;;22.10;100.00
24788;BME280;12883;52.662;5.196;2022-07-23T12:48:26;102048.69;;;22.02;100.00
24788;BME280;12883;52.662;5.196;2022-07-23T12:50:58;102038.34;;;22.15;100.00
24788;BME280;12883;52.662;5.196;2022-07-23T12:53:47;102040.16;;;22.26;100.00
24788;BME280;12883;52.662;5.196;2022-07-23T12:56:21;102042.88;;;22.26;100.00
24788;BME280;12883;52.662;5.196;2022-07-23T12:58:58;102050.56;;;22.34;100.00
24788;BME280;12883;52.662;5.196;2022-07-23T13:01:28;102024.44;;;22.07;100.00
24788;BME280;12883;52.662;5.196;2022-07-23T13:04:03;102048.84;;;22.12;100.00
24788;BME280;12883;52.662;5.196;2022-07-23T13:06:38;102050.19;;;22.26;100.00
24788;BME280;12883;52.662;5.196;2022-07-23T13:09:07;102045.41;;;22.16;100.00
24788;BME280;12883;52.662;5.196;2022-07-23T13:11:32;102056.91;;;22.40;100.00
24788;BME280;12883;52.662;5.196;2022-07-23T13:13:58;102063.66;;;22.54;100.00
24788;BME280;12883;52.662;5.196;2022-07-23T13:16:26;102055.59;;;22.26;100.00
24788;BME280;12883;52.662;5.196;2022-07-23T13:18:51;102055.00;;;22.24;100.00
24788;BME280;12883;52.662;5.196;2022-07-23T13:21:17;102057.00;;;22.45;100.00
24788;BME280;12883;52.662;5.196;2022-07-23T13:23:42;102054.19;;;22.40;100.00
24788;BME280;12883;52.662;5.196;2022-07-23T13:26:08;102047.34;;;22.49;100.00
24788;BME280;12883;52.662;5.196;2022-07-23T13:28:33;102062.59;;;22.55;100.00
24788;BME280;12883;52.662;5.196;2022-07-23T13:30:58;102051.34;;;22.63;100.00